sensor_id;sensor_type;location;lat;lon;timestamp;pressure;altitude;pressure_sealevel;temperature;humidity
51333;BME280;37417;48.118;11.734;2023-06-14T00:01:47;94952.75;;;8.83;100.00
51333;BME280;37417;48.118;11.734;2023-06-14T00:04:34;94960.16;;;8.86;100.00
51333;BME280;37417;48.118;11.734;2023-06-14T00:07:36;94953.97;;;8.93;100.00
51333;BME280;37417;48.118;11.734;2023-06-14T00:10:23;94955.19;;;8.98;100.00
51333;BME280;37417;48.118;11.734;2023-06-14T00:13:09;94954.78;;;9.07;100.00
51333;BME280;37417;48.118;11.734;2023-06-14T00:15:55;94957.63;;;9.19;100.00
51333;BME280;37417;48.118;11.734;2023-06-14T00:18:40;94957.03;;;9.23;100.00
51333;BME280;37417;48.118;11.734;2023-06-14T00:21:27;94961.81;;;9.20;100.00
51333;BME280;37417;48.118;11.734;2023-06-14T00:24:14;94949.56;;;9.01;100.00
51333;BME280;37417;48.118;11.734;2023-06-14T00:26:59;94951.13;;;8.82;100.00
51333;BME280;37417;48.118;11.734;2023-06-14T00:29:45;94958.53;;;8.72;100.00
51333;BME280;37417;48.118;11.734;2023-06-14T00:32:31;94947.84;;;8.47;100.00
51333;BME280;37417;48.118;11.734;2023-06-14T00:35:17;94950.50;;;8.19;100.00
51333;BME280;37417;48.118;11.734;2023-06-14T00:38:02;94946.03;;;8.06;100.00
51333;BME280;37417;48.118;11.734;2023-06-14T00:40:48;94955.19;;;8.02;100.00
51333;BME280;37417;48.118;11.734;2023-06-14T00:43:33;94951.56;;;7.96;100.00
51333;BME280;37417;48.118;11.734;2023-06-14T00:46:20;94955.00;;;8.03;100.00
51333;BME280;37417;48.118;11.734;2023-06-14T00:49:08;94951.66;;;8.16;100.00
51333;BME280;37417;48.118;11.734;2023-06-14T00:51:53;94953.63;;;8.07;100.00
51333;BME280;37417;48.118;11.734;2023-06-14T00:54:40;94956.03;;;8.09;100.00
51333;BME280;37417;48.118;11.734;2023-06-14T00:57:27;94949.00;;;8.03;100.00
51333;BME280;37417;48.118;11.734;2023-06-14T01:00:15;94959.41;;;8.09;100.00
51333;BME280;37417;48.118;11.734;2023-06-14T01:03:01;94959.66;;;8.14;100.00
51333;BME280;37417;48.118;11.734;2023-06-14T01:05:52;94954.63;;;8.06;100.00
51333;BME280;37417;48.118;11.734;2023-06-14T01:08:57;94958.34;;;7.97;100.00
51333;BME280;37417;48.118;11.734;2023-06-14T01:12:03;94960.56;;;8.00;100.00
51333;BME280;37417;48.118;11.734;2023-06-14T01:14:53;94962.69;;;8.18;100.00
51333;BME280;37417;48.118;11.734;2023-06-14T01:17:40;94950.16;;;8.35;100.00
51333;BME280;37417;48.118;11.734;2023-06-14T01:20:31;94948.81;;;8.39;100.00
51333;BME280;37417;48.118;11.734;2023-06-14T01:23:18;94953.38;;;8.37;100.00
51333;BME280;37417;48.118;11.734;2023-06-14T01:26:04;94954.44;;;8.49;100.00
51333;BME280;37417;48.118;11.734;2023-06-14T01:28:51;94955.06;;;8.51;100.00
51333;BME280;37417;48.118;11.734;2023-06-14T01:31:41;94945.84;;;8.49;100.00
51333;BME280;37417;48.118;11.734;2023-06-14T01:34:27;94943.41;;;8.40;100.00
51333;BME280;37417;48.118;11.734;2023-06-14T01:37:13;94937.22;;;8.41;100.00
51333;BME280;37417;48.118;11.734;2023-06-14T01:39:59;94941.63;;;8.41;100.00
51333;BME280;37417;48.118;11.734;2023-06-14T01:42:47;94943.63;;;8.39;100.00
51333;BME280;37417;48.118;11.734;2023-06-14T01:45:34;94944.13;;;8.28;100.00
51333;BME280;37417;48.118;11.734;2023-06-14T01:48:21;94937.81;;;8.02;100.00
51333;BME280;37417;48.118;11.734;2023-06-14T01:51:07;94934.38;;;7.95;100.00
51333;BME280;37417;48.118;11.734;2023-06-14T01:53:53;94936.78;;;7.97;100.00
51333;BME280;37417;48.118;11.734;2023-06-14T01:56:38;94945.19;;;7.99;100.00
51333;BME280;37417;48.118;11.734;2023-06-14T01:59:24;94939.00;;;8.00;100.00
51333;BME280;37417;48.118;11.734;2023-06-14T02:02:10;94934.59;;;8.00;100.00
51333;BME280;37417;48.118;11.734;2023-06-14T02:04:56;94936.44;;;8.06;100.00
51333;BME280;37417;48.118;11.734;2023-06-14T02:07:43;94931.88;;;8.15;100.00
51333;BME280;37417;48.118;11.734;2023-06-14T02:10:28;94936.91;;;8.23;100.00
51333;BME280;37417;48.118;11.734;2023-06-14T02:13:14;94941.72;;;8.26;100.00
51333;BME280;37417;48.118;11.734;2023-06-14T02:16:00;94938.44;;;8.11;100.00
51333;BME280;37417;48.118;11.734;2023-06-14T02:18:46;94939.66;;;8.15;100.00
51333;BME280;37417;48.118;11.734;2023-06-14T02:21:32;94940.94;;;8.26;100.00
51333;BME280;37417;48.118;11.734;2023-06-14T02:24:18;94942.03;;;8.10;100.00
51333;BME280;37417;48.118;11.734;2023-06-14T02:27:04;94942.19;;;8.02;100.00
51333;BME280;37417;48.118;11.734;2023-06-14T02:29:50;94939.69;;;7.80;100.00
51333;BME280;37417;48.118;11.734;2023-06-14T02:32:35;94930.38;;;7.93;100.00
51333;BME280;37417;48.118;11.734;2023-06-14T02:35:21;94937.63;;;8.10;100.00
51333;BME280;37417;48.118;11.734;2023-06-14T02:38:09;94937.09;;;8.22;100.00
51333;BME280;37417;48.118;11.734;2023-06-14T02:40:55;94940.16;;;7.97;100.00
51333;BME280;37417;48.118;11.734;2023-06-14T02:43:41;94940.06;;;7.77;100.00
51333;BME280;37417;48.118;11.734;2023-06-14T02:46:27;94944.78;;;7.67;100.00
51333;BME280;37417;48.118;11.734;2023-06-14T02:49:12;94940.34;;;7.61;100.00
51333;BME280;37417;48.118;11.734;2023-06-14T02:51:58;94936.16;;;7.60;100.00
51333;BME280;37417;48.118;11.734;2023-06-14T02:54:43;94932.66;;;7.46;100.00
51333;BME280;37417;48.118;11.734;2023-06-14T02:57:29;94937.22;;;7.44;100.00
51333;BME280;37417;48.118;11.734;2023-06-14T03:00:15;94934.78;;;7.36;100.00
51333;BME280;37417;48.118;11.734;2023-06-14T03:03:01;94947.13;;;7.34;100.00
51333;BME280;37417;48.118;11.734;2023-06-14T03:05:48;94947.28;;;7.04;100.00
51333;BME280;37417;48.118;11.734;2023-06-14T03:08:34;94946.63;;;6.81;100.00
51333;BME280;37417;48.118;11.734;2023-06-14T03:11:24;94955.34;;;6.73;100.00
51333;BME280;37417;48.118;11.734;2023-06-14T03:14:09;94956.31;;;6.72;100.00
51333;BME280;37417;48.118;11.734;2023-06-14T03:16:56;94959.72;;;6.73;100.00
51333;BME280;37417;48.118;11.734;2023-06-14T03:19:42;94954.47;;;6.66;100.00
51333;BME280;37417;48.118;11.734;2023-06-14T03:22:28;94955.78;;;6.77;100.00
51333;BME280;37417;48.118;11.734;2023-06-14T03:25:14;94966.09;;;6.70;100.00
51333;BME280;37417;48.118;11.734;2023-06-14T03:28:02;94970.22;;;6.65;100.00
51333;BME280;37417;48.118;11.734;2023-06-14T03:30:48;94968.84;;;6.69;100.00
51333;BME280;37417;48.118;11.734;2023-06-14T03:33:33;94969.34;;;6.79;100.00
51333;BME280;37417;48.118;11.734;2023-06-14T03:36:19;94977.47;;;6.91;100.00
51333;BME280;37417;48.118;11.734;2023-06-14T03:39:05;94971.28;;;6.92;100.00
51333;BME280;37417;48.118;11.734;2023-06-14T03:41:50;94968.25;;;6.88;100.00
51333;BME280;37417;48.118;11.734;2023-06-14T03:44:36;94976.66;;;6.90;100.00
51333;BME280;37417;48.118;11.734;2023-06-14T03:47:22;94973.81;;;6.85;100.00
51333;BME280;37417;48.118;11.734;2023-06-14T03:50:08;94973.50;;;6.95;100.00
51333;BME280;37417;48.118;11.734;2023-06-14T03:52:54;94976.84;;;7.10;100.00
51333;BME280;37417;48.118;11.734;2023-06-14T03:55:40;94976.22;;;7.29;100.00
51333;BME280;37417;48.118;11.734;2023-06-14T03:58:26;94977.56;;;7.47;100.00
51333;BME280;37417;48.118;11.734;2023-06-14T04:01:13;94988.06;;;7.60;100.00
51333;BME280;37417;48.118;11.734;2023-06-14T04:03:59;94995.59;;;7.55;100.00
51333;BME280;37417;48.118;11.734;2023-06-14T04:06:45;95007.41;;;7.57;100.00
51333;BME280;37417;48.118;11.734;2023-06-14T04:09:33;95013.59;;;7.56;100.00
51333;BME280;37417;48.118;11.734;2023-06-14T04:12:19;95013.19;;;7.59;100.00
51333;BME280;37417;48.118;11.734;2023-06-14T04:15:05;95012.44;;;7.87;100.00
51333;BME280;37417;48.118;11.734;2023-06-14T04:17:56;95012.00;;;8.11;100.00
51333;BME280;37417;48.118;11.734;2023-06-14T04:20:42;95016.97;;;8.41;100.00
51333;BME280;37417;48.118;11.734;2023-06-14T04:23:29;95015.06;;;8.63;100.00
51333;BME280;37417;48.118;11.734;2023-06-14T04:26:15;95019.31;;;8.64;100.00
51333;BME280;37417;48.118;11.734;2023-06-14T04:29:01;95016.91;;;8.69;100.00
51333;BME280;37417;48.118;11.734;2023-06-14T04:31:47;95015.41;;;8.94;100.00
51333;BME280;37417;48.118;11.734;2023-06-14T04:34:33;95023.22;;;9.01;100.00
51333;BME280;37417;48.118;11.734;2023-06-14T04:37:20;95025.25;;;9.12;100.00
51333;BME280;37417;48.118;11.734;2023-06-14T04:40:07;95025.09;;;9.27;100.00
51333;BME280;37417;48.118;11.734;2023-06-14T04:42:53;95022.53;;;9.47;100.00
51333;BME280;37417;48.118;11.734;2023-06-14T04:45:39;95025.34;;;9.59;100.00
51333;BME280;37417;48.118;11.734;2023-06-14T04:48:26;95014.53;;;9.88;100.00
51333;BME280;37417;48.118;11.734;2023-06-14T04:51:11;95013.31;;;10.04;100.00
51333;BME280;37417;48.118;11.734;2023-06-14T04:53:58;95017.72;;;10.23;100.00
51333;BME280;37417;48.118;11.734;2023-06-14T04:56:44;95023.06;;;10.55;100.00
51333;BME280;37417;48.118;11.734;2023-06-14T04:59:31;95026.41;;;10.82;100.00
51333;BME280;37417;48.118;11.734;2023-06-14T05:02:24;95033.06;;;11.16;100.00
51333;BME280;37417;48.118;11.734;2023-06-14T05:05:11;95025.41;;;11.21;100.00
51333;BME280;37417;48.118;11.734;2023-06-14T05:07:56;95026.38;;;11.27;100.00
51333;BME280;37417;48.118;11.734;2023-06-14T05:10:42;95036.94;;;11.38;100.00
51333;BME280;37417;48.118;11.734;2023-06-14T05:13:28;95037.63;;;11.59;100.00
51333;BME280;37417;48.118;11.734;2023-06-14T05:16:13;95031.94;;;12.00;100.00
51333;BME280;37417;48.118;11.734;2023-06-14T05:19:01;95036.94;;;12.02;100.00
51333;BME280;37417;48.118;11.734;2023-06-14T05:21:47;95029.53;;;12.24;100.00
51333;BME280;37417;48.118;11.734;2023-06-14T05:24:33;95033.34;;;12.21;100.00
51333;BME280;37417;48.118;11.734;2023-06-14T05:27:18;95039.59;;;12.63;100.00
51333;BME280;37417;48.118;11.734;2023-06-14T05:30:04;95041.31;;;12.88;100.00
51333;BME280;37417;48.118;11.734;2023-06-14T05:32:50;95041.50;;;13.05;100.00
51333;BME280;37417;48.118;11.734;2023-06-14T05:35:36;95043.91;;;13.24;100.00
51333;BME280;37417;48.118;11.734;2023-06-14T05:38:23;95048.66;;;13.46;100.00
51333;BME280;37417;48.118;11.734;2023-06-14T05:41:08;95050.28;;;13.47;100.00
51333;BME280;37417;48.118;11.734;2023-06-14T05:43:55;95051.97;;;13.95;100.00
51333;BME280;37417;48.118;11.734;2023-06-14T05:46:41;95045.66;;;14.38;97.14
51333;BME280;37417;48.118;11.734;2023-06-14T05:49:27;95052.03;;;14.65;94.96
51333;BME280;37417;48.118;11.734;2023-06-14T05:52:12;95047.03;;;14.63;95.03
51333;BME280;37417;48.118;11.734;2023-06-14T05:54:58;95042.25;;;15.41;88.51
51333;BME280;37417;48.118;11.734;2023-06-14T05:57:44;95045.00;;;15.91;85.95
51333;BME280;37417;48.118;11.734;2023-06-14T06:00:31;95037.75;;;16.49;80.34
51333;BME280;37417;48.118;11.734;2023-06-14T06:03:16;95040.13;;;16.89;76.83
51333;BME280;37417;48.118;11.734;2023-06-14T06:06:02;95038.66;;;17.20;75.04
51333;BME280;37417;48.118;11.734;2023-06-14T06:08:48;95041.78;;;18.25;69.40
51333;BME280;37417;48.118;11.734;2023-06-14T06:11:34;95037.00;;;18.59;68.56
51333;BME280;37417;48.118;11.734;2023-06-14T06:14:19;95041.28;;;19.23;65.30
51333;BME280;37417;48.118;11.734;2023-06-14T06:17:05;95051.59;;;19.14;65.33
51333;BME280;37417;48.118;11.734;2023-06-14T06:19:51;95055.78;;;20.09;60.22
51333;BME280;37417;48.118;11.734;2023-06-14T06:22:38;95050.75;;;20.48;57.06
51333;BME280;37417;48.118;11.734;2023-06-14T06:25:25;95062.16;;;20.23;58.92
51333;BME280;37417;48.118;11.734;2023-06-14T06:28:12;95061.59;;;20.87;55.13
51333;BME280;37417;48.118;11.734;2023-06-14T06:30:57;95053.44;;;20.22;55.88
51333;BME280;37417;48.118;11.734;2023-06-14T06:33:43;95065.72;;;21.29;55.09
51333;BME280;37417;48.118;11.734;2023-06-14T06:36:29;95058.63;;;22.08;51.50
51333;BME280;37417;48.118;11.734;2023-06-14T06:39:14;95059.91;;;22.50;49.70
51333;BME280;37417;48.118;11.734;2023-06-14T06:42:00;95060.66;;;22.55;49.17
51333;BME280;37417;48.118;11.734;2023-06-14T06:44:46;95062.34;;;22.07;46.12
51333;BME280;37417;48.118;11.734;2023-06-14T06:47:32;95065.75;;;22.52;45.72
51333;BME280;37417;48.118;11.734;2023-06-14T06:50:17;95072.31;;;22.30;47.68
51333;BME280;37417;48.118;11.734;2023-06-14T06:53:03;95072.47;;;22.05;47.16
51333;BME280;37417;48.118;11.734;2023-06-14T06:55:49;95071.81;;;24.34;42.27
51333;BME280;37417;48.118;11.734;2023-06-14T06:58:34;95068.00;;;24.21;40.63
51333;BME280;37417;48.118;11.734;2023-06-14T07:01:20;95069.00;;;24.25;40.74
51333;BME280;37417;48.118;11.734;2023-06-14T07:04:06;95067.41;;;23.24;42.85
51333;BME280;37417;48.118;11.734;2023-06-14T07:06:51;95067.50;;;23.62;40.98
51333;BME280;37417;48.118;11.734;2023-06-14T07:09:37;95069.97;;;23.77;40.77
51333;BME280;37417;48.118;11.734;2023-06-14T07:12:23;95068.41;;;23.52;42.37
51333;BME280;37417;48.118;11.734;2023-06-14T07:15:09;95081.63;;;22.86;44.58
51333;BME280;37417;48.118;11.734;2023-06-14T07:17:55;95076.75;;;23.46;43.33
51333;BME280;37417;48.118;11.734;2023-06-14T07:20:44;95073.47;;;25.50;39.25
51333;BME280;37417;48.118;11.734;2023-06-14T07:23:30;95075.78;;;24.17;41.01
51333;BME280;37417;48.118;11.734;2023-06-14T07:26:16;95083.41;;;24.75;39.85
51333;BME280;37417;48.118;11.734;2023-06-14T07:29:02;95079.22;;;25.71;37.58
51333;BME280;37417;48.118;11.734;2023-06-14T07:31:47;95086.84;;;25.77;37.00
51333;BME280;37417;48.118;11.734;2023-06-14T07:34:33;95085.28;;;25.76;36.39
51333;BME280;37417;48.118;11.734;2023-06-14T07:37:19;95092.84;;;26.19;35.97
51333;BME280;37417;48.118;11.734;2023-06-14T07:40:05;95089.25;;;25.37;36.92
51333;BME280;37417;48.118;11.734;2023-06-14T07:42:52;95099.59;;;24.79;38.85
51333;BME280;37417;48.118;11.734;2023-06-14T07:45:39;95091.25;;;25.96;35.56
51333;BME280;37417;48.118;11.734;2023-06-14T07:48:25;95091.53;;;25.94;36.35
51333;BME280;37417;48.118;11.734;2023-06-14T07:51:11;95093.38;;;24.37;37.18
51333;BME280;37417;48.118;11.734;2023-06-14T07:53:56;95093.84;;;24.58;37.07
51333;BME280;37417;48.118;11.734;2023-06-14T07:56:42;95094.91;;;24.90;36.60
51333;BME280;37417;48.118;11.734;2023-06-14T07:59:27;95084.94;;;25.91;34.59
51333;BME280;37417;48.118;11.734;2023-06-14T08:02:14;95087.84;;;25.40;35.63
51333;BME280;37417;48.118;11.734;2023-06-14T08:04:59;95081.06;;;25.98;32.89
51333;BME280;37417;48.118;11.734;2023-06-14T08:07:45;95088.03;;;25.16;32.24
51333;BME280;37417;48.118;11.734;2023-06-14T08:10:31;95087.38;;;24.45;31.93
51333;BME280;37417;48.118;11.734;2023-06-14T08:13:17;95082.44;;;24.85;33.77
51333;BME280;37417;48.118;11.734;2023-06-14T08:16:02;95090.22;;;24.16;34.06
51333;BME280;37417;48.118;11.734;2023-06-14T08:18:50;95089.47;;;23.49;35.85
51333;BME280;37417;48.118;11.734;2023-06-14T08:21:36;95100.38;;;23.76;36.68
51333;BME280;37417;48.118;11.734;2023-06-14T08:24:22;95089.09;;;25.01;35.30
51333;BME280;37417;48.118;11.734;2023-06-14T08:27:10;95088.31;;;25.56;32.00
51333;BME280;37417;48.118;11.734;2023-06-14T08:29:55;95100.00;;;24.72;33.19
51333;BME280;37417;48.118;11.734;2023-06-14T08:32:41;95101.25;;;24.94;32.58
51333;BME280;37417;48.118;11.734;2023-06-14T08:35:27;95106.97;;;25.01;31.79
51333;BME280;37417;48.118;11.734;2023-06-14T08:38:12;95107.47;;;25.03;32.59
51333;BME280;37417;48.118;11.734;2023-06-14T08:41:00;95107.91;;;25.10;33.41
51333;BME280;37417;48.118;11.734;2023-06-14T08:43:47;95106.81;;;25.80;30.49
51333;BME280;37417;48.118;11.734;2023-06-14T08:46:33;95102.59;;;25.51;30.56
51333;BME280;37417;48.118;11.734;2023-06-14T08:49:19;95109.69;;;25.15;30.82
51333;BME280;37417;48.118;11.734;2023-06-14T08:52:08;95113.81;;;24.61;32.85
51333;BME280;37417;48.118;11.734;2023-06-14T08:54:56;95114.81;;;24.08;33.97
51333;BME280;37417;48.118;11.734;2023-06-14T08:57:43;95108.78;;;23.84;32.67
51333;BME280;37417;48.118;11.734;2023-06-14T09:00:29;95102.44;;;22.79;34.39
51333;BME280;37417;48.118;11.734;2023-06-14T09:03:16;95112.97;;;22.60;35.44
51333;BME280;37417;48.118;11.734;2023-06-14T09:06:02;95108.28;;;23.10;33.52
51333;BME280;37417;48.118;11.734;2023-06-14T09:08:49;95107.38;;;22.95;35.94
51333;BME280;37417;48.118;11.734;2023-06-14T09:11:35;95105.00;;;23.42;35.75
51333;BME280;37417;48.118;11.734;2023-06-14T09:14:23;95101.66;;;23.55;33.45
51333;BME280;37417;48.118;11.734;2023-06-14T09:17:13;95112.66;;;23.24;34.36
51333;BME280;37417;48.118;11.734;2023-06-14T09:19:58;95112.34;;;23.50;36.12
51333;BME280;37417;48.118;11.734;2023-06-14T09:22:44;95120.31;;;24.17;35.24
51333;BME280;37417;48.118;11.734;2023-06-14T09:25:30;95120.06;;;23.75;35.61
51333;BME280;37417;48.118;11.734;2023-06-14T09:28:16;95120.50;;;24.01;35.42
51333;BME280;37417;48.118;11.734;2023-06-14T09:31:02;95119.03;;;24.66;35.38
51333;BME280;37417;48.118;11.734;2023-06-14T09:33:49;95116.13;;;24.48;35.01
51333;BME280;37417;48.118;11.734;2023-06-14T09:36:35;95112.88;;;24.98;34.51
51333;BME280;37417;48.118;11.734;2023-06-14T09:39:21;95123.03;;;24.82;33.71
51333;BME280;37417;48.118;11.734;2023-06-14T09:42:17;95124.50;;;24.74;33.91
51333;BME280;37417;48.118;11.734;2023-06-14T09:45:04;95117.50;;;24.78;33.83
51333;BME280;37417;48.118;11.734;2023-06-14T09:47:50;95123.84;;;25.43;33.73
51333;BME280;37417;48.118;11.734;2023-06-14T09:50:36;95130.38;;;24.20;34.66
51333;BME280;37417;48.118;11.734;2023-06-14T09:53:23;95129.34;;;23.30;36.25
51333;BME280;37417;48.118;11.734;2023-06-14T09:56:10;95128.38;;;22.63;37.11
51333;BME280;37417;48.118;11.734;2023-06-14T09:58:57;95132.22;;;22.47;36.75
51333;BME280;37417;48.118;11.734;2023-06-14T10:01:43;95134.03;;;22.17;37.09
51333;BME280;37417;48.118;11.734;2023-06-14T10:04:30;95136.44;;;22.08;37.61
51333;BME280;37417;48.118;11.734;2023-06-14T10:07:19;95129.66;;;21.87;37.86
51333;BME280;37417;48.118;11.734;2023-06-14T10:10:06;95130.00;;;22.25;38.20
51333;BME280;37417;48.118;11.734;2023-06-14T10:12:52;95124.63;;;23.51;36.06
51333;BME280;37417;48.118;11.734;2023-06-14T10:16:05;95126.66;;;24.40;35.36
51333;BME280;37417;48.118;11.734;2023-06-14T10:21:55;95131.94;;;22.87;36.87
51333;BME280;37417;48.118;11.734;2023-06-14T10:24:44;95130.06;;;22.83;37.39
51333;BME280;37417;48.118;11.734;2023-06-14T10:27:30;95128.25;;;22.78;38.15
51333;BME280;37417;48.118;11.734;2023-06-14T10:30:16;95128.50;;;22.48;38.60
51333;BME280;37417;48.118;11.734;2023-06-14T10:33:06;95122.03;;;25.10;36.02
51333;BME280;37417;48.118;11.734;2023-06-14T10:36:10;95124.38;;;27.12;33.25
51333;BME280;37417;48.118;11.734;2023-06-14T10:39:18;95115.53;;;28.86;30.38
51333;BME280;37417;48.118;11.734;2023-06-14T10:42:05;95110.97;;;29.72;28.41
51333;BME280;37417;48.118;11.734;2023-06-14T10:44:55;95112.22;;;29.36;29.39
51333;BME280;37417;48.118;11.734;2023-06-14T10:47:41;95110.13;;;29.03;29.38
51333;BME280;37417;48.118;11.734;2023-06-14T10:50:29;95113.63;;;28.78;29.23
51333;BME280;37417;48.118;11.734;2023-06-14T10:53:22;95110.28;;;30.88;27.80
51333;BME280;37417;48.118;11.734;2023-06-14T10:56:23;95114.81;;;31.08;27.05
51333;BME280;37417;48.118;11.734;2023-06-14T10:59:10;95117.59;;;31.45;27.02
51333;BME280;37417;48.118;11.734;2023-06-14T11:05:03;95109.97;;;29.00;28.46
51333;BME280;37417;48.118;11.734;2023-06-14T11:10:54;95103.50;;;30.48;27.47
51333;BME280;37417;48.118;11.734;2023-06-14T11:13:45;95106.13;;;31.97;25.50
51333;BME280;37417;48.118;11.734;2023-06-14T11:16:31;95109.44;;;31.20;26.13
51333;BME280;37417;48.118;11.734;2023-06-14T11:19:18;95104.84;;;30.76;25.71
51333;BME280;37417;48.118;11.734;2023-06-14T11:22:05;95106.75;;;32.06;24.73
51333;BME280;37417;48.118;11.734;2023-06-14T11:24:50;95109.47;;;32.06;24.26
51333;BME280;37417;48.118;11.734;2023-06-14T11:27:36;95093.69;;;32.60;23.45
51333;BME280;37417;48.118;11.734;2023-06-14T11:30:23;95107.84;;;32.98;22.80
51333;BME280;37417;48.118;11.734;2023-06-14T11:33:11;95115.06;;;32.13;22.68
51333;BME280;37417;48.118;11.734;2023-06-14T11:36:03;95101.84;;;34.38;20.64
51333;BME280;37417;48.118;11.734;2023-06-14T11:38:58;95106.16;;;32.65;22.90
51333;BME280;37417;48.118;11.734;2023-06-14T11:41:44;95098.44;;;33.71;22.65
51333;BME280;37417;48.118;11.734;2023-06-14T11:44:31;95093.00;;;34.02;21.71
51333;BME280;37417;48.118;11.734;2023-06-14T11:47:17;95100.06;;;34.84;20.62
51333;BME280;37417;48.118;11.734;2023-06-14T11:50:04;95094.97;;;33.54;21.49
51333;BME280;37417;48.118;11.734;2023-06-14T11:52:54;95090.75;;;35.24;20.18
51333;BME280;37417;48.118;11.734;2023-06-14T11:55:40;95094.53;;;34.58;20.17
51333;BME280;37417;48.118;11.734;2023-06-14T11:58:26;95098.84;;;34.24;21.02
51333;BME280;37417;48.118;11.734;2023-06-14T12:01:19;95089.00;;;35.58;19.79
51333;BME280;37417;48.118;11.734;2023-06-14T12:04:04;95084.69;;;34.50;18.97
51333;BME280;37417;48.118;11.734;2023-06-14T12:06:50;95086.56;;;36.02;20.25
51333;BME280;37417;48.118;11.734;2023-06-14T12:09:38;95089.56;;;37.28;18.41
51333;BME280;37417;48.118;11.734;2023-06-14T12:12:25;95091.59;;;35.05;19.53
51333;BME280;37417;48.118;11.734;2023-06-14T12:15:11;95099.59;;;35.93;19.35
51333;BME280;37417;48.118;11.734;2023-06-14T12:17:57;95093.28;;;35.36;19.41
51333;BME280;37417;48.118;11.734;2023-06-14T12:20:48;95088.41;;;34.61;20.20
51333;BME280;37417;48.118;11.734;2023-06-14T12:23:46;95089.63;;;35.28;19.41
51333;BME280;37417;48.118;11.734;2023-06-14T12:26:32;95087.59;;;34.21;20.51
51333;BME280;37417;48.118;11.734;2023-06-14T12:29:19;95086.75;;;36.17;19.15
51333;BME280;37417;48.118;11.734;2023-06-14T12:32:05;95090.13;;;35.34;19.30
51333;BME280;37417;48.118;11.734;2023-06-14T12:34:51;95082.72;;;34.46;20.01
51333;BME280;37417;48.118;11.734;2023-06-14T12:37:37;95080.41;;;33.59;21.03
51333;BME280;37417;48.118;11.734;2023-06-14T12:40:23;95078.94;;;33.97;20.05
51333;BME280;37417;48.118;11.734;2023-06-14T12:43:09;95081.53;;;35.51;19.19
51333;BME280;37417;48.118;11.734;2023-06-14T12:45:54;95082.91;;;33.20;19.64
51333;BME280;37417;48.118;11.734;2023-06-14T12:48:40;95086.56;;;34.45;20.46
51333;BME280;37417;48.118;11.734;2023-06-14T12:51:26;95086.69;;;33.63;20.70
51333;BME280;37417;48.118;11.734;2023-06-14T12:54:12;95088.97;;;34.70;20.54
51333;BME280;37417;48.118;11.734;2023-06-14T12:56:57;95092.00;;;34.88;19.34
51333;BME280;37417;48.118;11.734;2023-06-14T12:59:43;95094.56;;;35.23;18.67
51333;BME280;37417;48.118;11.734;2023-06-14T13:02:29;95097.53;;;35.14;19.17
51333;BME280;37417;48.118;11.734;2023-06-14T13:05:14;95093.06;;;34.83;18.81
51333;BME280;37417;48.118;11.734;2023-06-14T13:08:00;95092.13;;;33.03;20.55
51333;BME280;37417;48.118;11.734;2023-06-14T13:10:46;95101.50;;;30.91;22.70
51333;BME280;37417;48.118;11.734;2023-06-14T13:13:32;95093.81;;;30.14;22.95
51333;BME280;37417;48.118;11.734;2023-06-14T13:16:17;95094.94;;;31.13;22.94
51333;BME280;37417;48.118;11.734;2023-06-14T13:19:03;95087.47;;;34.34;19.37
51333;BME280;37417;48.118;11.734;2023-06-14T13:21:49;95092.00;;;35.53;18.65
51333;BME280;37417;48.118;11.734;2023-06-14T13:24:35;95093.50;;;35.27;18.80
51333;BME280;37417;48.118;11.734;2023-06-14T13:27:21;95092.16;;;36.17;17.73
51333;BME280;37417;48.118;11.734;2023-06-14T13:30:07;95084.66;;;36.67;16.90
51333;BME280;37417;48.118;11.734;2023-06-14T13:32:52;95083.25;;;35.40;17.93
51333;BME280;37417;48.118;11.734;2023-06-14T13:35:38;95084.06;;;35.67;18.85
51333;BME280;37417;48.118;11.734;2023-06-14T13:38:24;95087.66;;;34.83;19.08
51333;BME280;37417;48.118;11.734;2023-06-14T13:41:09;95083.31;;;34.98;19.25
51333;BME280;37417;48.118;11.734;2023-06-14T13:43:55;95085.50;;;36.11;18.78
51333;BME280;37417;48.118;11.734;2023-06-14T13:46:41;95082.69;;;35.50;18.32
51333;BME280;37417;48.118;11.734;2023-06-14T13:49:28;95083.38;;;35.01;18.82
51333;BME280;37417;48.118;11.734;2023-06-14T13:52:13;95079.59;;;35.78;18.09
51333;BME280;37417;48.118;11.734;2023-06-14T13:54:59;95070.81;;;36.79;16.13
51333;BME280;37417;48.118;11.734;2023-06-14T13:57:45;95073.69;;;33.53;18.77
51333;BME280;37417;48.118;11.734;2023-06-14T14:00:31;95068.28;;;33.53;19.03
51333;BME280;37417;48.118;11.734;2023-06-14T14:03:17;95078.47;;;34.10;18.56
51333;BME280;37417;48.118;11.734;2023-06-14T14:06:04;95082.72;;;34.66;18.53
51333;BME280;37417;48.118;11.734;2023-06-14T14:08:51;95080.34;;;35.49;17.34
51333;BME280;37417;48.118;11.734;2023-06-14T14:11:38;95077.41;;;36.44;17.75
51333;BME280;37417;48.118;11.734;2023-06-14T14:14:25;95075.72;;;34.45;17.98
51333;BME280;37417;48.118;11.734;2023-06-14T14:17:11;95065.03;;;32.56;18.34
51333;BME280;37417;48.118;11.734;2023-06-14T14:19:57;95067.00;;;31.05;21.12
51333;BME280;37417;48.118;11.734;2023-06-14T14:22:43;95071.88;;;30.91;22.13
51333;BME280;37417;48.118;11.734;2023-06-14T14:25:28;95064.72;;;32.45;20.77
51333;BME280;37417;48.118;11.734;2023-06-14T14:28:14;95072.84;;;31.19;22.43
51333;BME280;37417;48.118;11.734;2023-06-14T14:31:01;95081.94;;;30.69;22.26
51333;BME280;37417;48.118;11.734;2023-06-14T14:33:47;95078.56;;;31.18;22.50
51333;BME280;37417;48.118;11.734;2023-06-14T14:36:32;95081.19;;;32.28;20.97
51333;BME280;37417;48.118;11.734;2023-06-14T14:39:23;95082.91;;;32.76;21.10
51333;BME280;37417;48.118;11.734;2023-06-14T14:42:08;95083.25;;;34.17;19.60